sensor_id;sensor_type;location;lat;lon;timestamp;P1;durP1;ratioP1;P2;durP2;ratioP2
13345;SDS011;6742;48.036;15.780;2023-01-19T00:01:38;3.73;;;3.37;;
13345;SDS011;6742;48.036;15.780;2023-01-19T00:04:05;4.03;;;3.50;;
13345;SDS011;6742;48.036;15.780;2023-01-19T00:06:32;3.50;;;3.20;;
13345;SDS011;6742;48.036;15.780;2023-01-19T00:08:59;4.27;;;3.77;;
13345;SDS011;6742;48.036;15.780;2023-01-19T00:11:26;4.03;;;3.60;;
13345;SDS011;6742;48.036;15.780;2023-01-19T00:13:53;3.90;;;3.50;;
13345;SDS011;6742;48.036;15.780;2023-01-19T00:16:22;4.40;;;4.00;;
13345;SDS011;6742;48.036;15.780;2023-01-19T00:18:49;3.87;;;3.57;;
13345;SDS011;6742;48.036;15.780;2023-01-19T00:21:17;4.77;;;3.80;;
13345;SDS011;6742;48.036;15.780;2023-01-19T00:23:45;4.57;;;3.93;;
13345;SDS011;6742;48.036;15.780;2023-01-19T00:26:15;4.73;;;3.70;;
13345;SDS011;6742;48.036;15.780;2023-01-19T00:28:43;5.00;;;4.60;;
13345;SDS011;6742;48.036;15.780;2023-01-19T00:31:10;4.83;;;4.13;;
13345;SDS011;6742;48.036;15.780;2023-01-19T00:33:38;4.60;;;4.13;;
13345;SDS011;6742;48.036;15.780;2023-01-19T00:36:06;5.17;;;4.67;;
13345;SDS011;6742;48.036;15.780;2023-01-19T00:38:34;5.00;;;4.33;;
13345;SDS011;6742;48.036;15.780;2023-01-19T00:41:01;5.60;;;4.47;;
13345;SDS011;6742;48.036;15.780;2023-01-19T00:43:28;5.33;;;4.83;;
13345;SDS011;6742;48.036;15.780;2023-01-19T00:45:53;5.13;;;4.63;;
13345;SDS011;6742;48.036;15.780;2023-01-19T00:48:20;5.37;;;4.67;;
13345;SDS011;6742;48.036;15.780;2023-01-19T00:50:49;4.90;;;4.40;;
13345;SDS011;6742;48.036;15.780;2023-01-19T00:53:16;5.00;;;4.50;;
13345;SDS011;6742;48.036;15.780;2023-01-19T00:55:43;5.47;;;4.97;;
13345;SDS011;6742;48.036;15.780;2023-01-19T00:58:09;5.60;;;4.47;;
13345;SDS011;6742;48.036;15.780;2023-01-19T01:00:36;5.07;;;4.57;;
13345;SDS011;6742;48.036;15.780;2023-01-19T01:03:03;5.57;;;4.97;;
13345;SDS011;6742;48.036;15.780;2023-01-19T01:05:30;5.37;;;4.87;;
13345;SDS011;6742;48.036;15.780;2023-01-19T01:07:59;4.77;;;4.33;;
13345;SDS011;6742;48.036;15.780;2023-01-19T01:10:27;5.47;;;4.97;;
13345;SDS011;6742;48.036;15.780;2023-01-19T01:12:54;5.17;;;4.67;;
13345;SDS011;6742;48.036;15.780;2023-01-19T01:15:21;5.80;;;5.30;;
13345;SDS011;6742;48.036;15.780;2023-01-19T01:17:50;5.77;;;5.10;;
13345;SDS011;6742;48.036;15.780;2023-01-19T01:20:18;5.20;;;4.70;;
13345;SDS011;6742;48.036;15.780;2023-01-19T01:22:47;5.77;;;4.70;;
13345;SDS011;6742;48.036;15.780;2023-01-19T01:25:19;5.03;;;4.53;;
13345;SDS011;6742;48.036;15.780;2023-01-19T01:27:50;5.27;;;4.77;;
13345;SDS011;6742;48.036;15.780;2023-01-19T01:30:18;5.60;;;5.00;;
13345;SDS011;6742;48.036;15.780;2023-01-19T01:32:45;6.03;;;5.30;;
13345;SDS011;6742;48.036;15.780;2023-01-19T01:35:13;6.17;;;5.57;;
13345;SDS011;6742;48.036;15.780;2023-01-19T01:37:40;6.57;;;5.47;;
13345;SDS011;6742;48.036;15.780;2023-01-19T01:40:09;6.07;;;5.30;;
13345;SDS011;6742;48.036;15.780;2023-01-19T01:42:39;6.03;;;5.43;;
13345;SDS011;6742;48.036;15.780;2023-01-19T01:45:19;6.27;;;5.60;;
13345;SDS011;6742;48.036;15.780;2023-01-19T01:47:53;5.80;;;5.20;;
13345;SDS011;6742;48.036;15.780;2023-01-19T01:50:24;5.27;;;4.77;;
13345;SDS011;6742;48.036;15.780;2023-01-19T01:52:57;6.33;;;5.60;;
13345;SDS011;6742;48.036;15.780;2023-01-19T01:55:27;6.80;;;6.10;;
13345;SDS011;6742;48.036;15.780;2023-01-19T01:58:00;6.03;;;5.43;;
13345;SDS011;6742;48.036;15.780;2023-01-19T02:00:29;6.37;;;5.53;;
13345;SDS011;6742;48.036;15.780;2023-01-19T02:03:17;6.13;;;5.40;;
13345;SDS011;6742;48.036;15.780;2023-01-19T02:05:47;6.60;;;5.67;;
13345;SDS011;6742;48.036;15.780;2023-01-19T02:08:18;6.30;;;5.70;;
13345;SDS011;6742;48.036;15.780;2023-01-19T02:11:07;6.07;;;5.30;;
13345;SDS011;6742;48.036;15.780;2023-01-19T02:13:54;6.47;;;5.87;;
13345;SDS011;6742;48.036;15.780;2023-01-19T02:16:20;7.13;;;6.03;;
13345;SDS011;6742;48.036;15.780;2023-01-19T02:18:47;6.20;;;5.60;;
13345;SDS011;6742;48.036;15.780;2023-01-19T02:21:16;6.87;;;5.83;;
13345;SDS011;6742;48.036;15.780;2023-01-19T02:23:48;6.70;;;6.00;;
13345;SDS011;6742;48.036;15.780;2023-01-19T02:26:19;7.07;;;6.30;;
13345;SDS011;6742;48.036;15.780;2023-01-19T02:28:49;6.47;;;5.80;;
13345;SDS011;6742;48.036;15.780;2023-01-19T02:31:19;7.23;;;6.27;;
13345;SDS011;6742;48.036;15.780;2023-01-19T02:33:46;6.80;;;5.90;;
13345;SDS011;6742;48.036;15.780;2023-01-19T02:36:13;6.73;;;6.03;;
13345;SDS011;6742;48.036;15.780;2023-01-19T02:38:43;7.00;;;6.17;;
13345;SDS011;6742;48.036;15.780;2023-01-19T02:41:14;6.97;;;5.63;;
13345;SDS011;6742;48.036;15.780;2023-01-19T02:43:43;6.73;;;6.03;;
13345;SDS011;6742;48.036;15.780;2023-01-19T02:46:13;6.10;;;5.50;;
13345;SDS011;6742;48.036;15.780;2023-01-19T02:48:40;6.43;;;5.83;;
13345;SDS011;6742;48.036;15.780;2023-01-19T02:51:09;6.77;;;6.03;;
13345;SDS011;6742;48.036;15.780;2023-01-19T02:53:48;7.70;;;6.83;;
13345;SDS011;6742;48.036;15.780;2023-01-19T02:56:33;6.83;;;6.13;;
13345;SDS011;6742;48.036;15.780;2023-01-19T02:59:13;7.33;;;6.33;;
13345;SDS011;6742;48.036;15.780;2023-01-19T03:02:00;8.13;;;6.70;;
13345;SDS011;6742;48.036;15.780;2023-01-19T03:04:40;7.80;;;7.00;;
13345;SDS011;6742;48.036;15.780;2023-01-19T03:07:20;6.73;;;6.03;;
13345;SDS011;6742;48.036;15.780;2023-01-19T03:09:56;8.07;;;6.93;;
13345;SDS011;6742;48.036;15.780;2023-01-19T03:12:30;6.90;;;6.20;;
13345;SDS011;6742;48.036;15.780;2023-01-19T03:15:07;8.80;;;6.77;;
13345;SDS011;6742;48.036;15.780;2023-01-19T03:17:40;7.43;;;6.67;;
13345;SDS011;6742;48.036;15.780;2023-01-19T03:20:09;7.33;;;6.63;;
13345;SDS011;6742;48.036;15.780;2023-01-19T03:22:39;7.50;;;6.67;;
13345;SDS011;6742;48.036;15.780;2023-01-19T03:25:08;7.30;;;6.60;;
13345;SDS011;6742;48.036;15.780;2023-01-19T03:27:40;7.20;;;6.50;;
13345;SDS011;6742;48.036;15.780;2023-01-19T03:30:11;7.03;;;6.33;;
13345;SDS011;6742;48.036;15.780;2023-01-19T03:32:43;7.57;;;6.53;;
13345;SDS011;6742;48.036;15.780;2023-01-19T03:35:13;7.47;;;6.40;;
13345;SDS011;6742;48.036;15.780;2023-01-19T03:37:44;7.70;;;6.90;;
13345;SDS011;6742;48.036;15.780;2023-01-19T03:40:17;7.87;;;7.07;;
13345;SDS011;6742;48.036;15.780;2023-01-19T03:42:45;7.13;;;6.43;;
13345;SDS011;6742;48.036;15.780;2023-01-19T03:45:14;7.63;;;6.30;;
13345;SDS011;6742;48.036;15.780;2023-01-19T03:47:42;7.83;;;6.87;;
13345;SDS011;6742;48.036;15.780;2023-01-19T03:50:10;10.53;;;7.00;;
13345;SDS011;6742;48.036;15.780;2023-01-19T03:52:44;8.37;;;7.20;;
13345;SDS011;6742;48.036;15.780;2023-01-19T03:55:11;7.77;;;6.97;;
13345;SDS011;6742;48.036;15.780;2023-01-19T03:57:38;8.00;;;7.20;;
13345;SDS011;6742;48.036;15.780;2023-01-19T04:00:08;9.43;;;7.03;;
13345;SDS011;6742;48.036;15.780;2023-01-19T04:02:36;8.60;;;7.70;;
13345;SDS011;6742;48.036;15.780;2023-01-19T04:05:03;8.57;;;7.20;;
13345;SDS011;6742;48.036;15.780;2023-01-19T04:07:30;7.80;;;7.00;;
13345;SDS011;6742;48.036;15.780;2023-01-19T04:09:57;7.60;;;6.90;;
13345;SDS011;6742;48.036;15.780;2023-01-19T04:12:24;10.00;;;7.63;;
13345;SDS011;6742;48.036;15.780;2023-01-19T04:14:51;8.37;;;7.33;;
13345;SDS011;6742;48.036;15.780;2023-01-19T04:17:22;7.73;;;6.93;;
13345;SDS011;6742;48.036;15.780;2023-01-19T04:19:49;8.73;;;7.30;;
13345;SDS011;6742;48.036;15.780;2023-01-19T04:22:17;7.73;;;6.90;;
13345;SDS011;6742;48.036;15.780;2023-01-19T04:24:44;7.90;;;7.10;;
13345;SDS011;6742;48.036;15.780;2023-01-19T04:27:11;7.90;;;7.07;;
13345;SDS011;6742;48.036;15.780;2023-01-19T04:29:39;8.13;;;7.33;;
13345;SDS011;6742;48.036;15.780;2023-01-19T04:32:05;7.80;;;6.77;;
13345;SDS011;6742;48.036;15.780;2023-01-19T04:34:34;7.50;;;6.70;;
13345;SDS011;6742;48.036;15.780;2023-01-19T04:37:01;7.97;;;7.17;;
13345;SDS011;6742;48.036;15.780;2023-01-19T04:39:32;7.63;;;6.93;;
13345;SDS011;6742;48.036;15.780;2023-01-19T04:41:59;7.77;;;6.97;;
13345;SDS011;6742;48.036;15.780;2023-01-19T04:44:26;8.80;;;7.90;;
13345;SDS011;6742;48.036;15.780;2023-01-19T04:46:53;9.03;;;8.13;;
13345;SDS011;6742;48.036;15.780;2023-01-19T04:49:20;8.30;;;7.40;;
13345;SDS011;6742;48.036;15.780;2023-01-19T04:51:49;8.73;;;7.77;;
13345;SDS011;6742;48.036;15.780;2023-01-19T04:54:21;7.90;;;7.10;;
13345;SDS011;6742;48.036;15.780;2023-01-19T04:56:48;9.53;;;8.37;;
13345;SDS011;6742;48.036;15.780;2023-01-19T04:59:15;8.73;;;7.83;;
13345;SDS011;6742;48.036;15.780;2023-01-19T05:01:44;8.90;;;8.00;;
13345;SDS011;6742;48.036;15.780;2023-01-19T05:04:11;9.23;;;8.33;;
13345;SDS011;6742;48.036;15.780;2023-01-19T05:06:38;10.60;;;8.93;;
13345;SDS011;6742;48.036;15.780;2023-01-19T05:09:06;10.50;;;9.20;;
13345;SDS011;6742;48.036;15.780;2023-01-19T05:11:35;9.63;;;8.63;;
13345;SDS011;6742;48.036;15.780;2023-01-19T05:14:02;11.67;;;9.53;;
13345;SDS011;6742;48.036;15.780;2023-01-19T05:16:29;12.23;;;9.50;;
13345;SDS011;6742;48.036;15.780;2023-01-19T05:18:56;10.50;;;8.87;;
13345;SDS011;6742;48.036;15.780;2023-01-19T05:21:23;10.60;;;9.50;;
13345;SDS011;6742;48.036;15.780;2023-01-19T05:23:50;11.50;;;9.00;;
13345;SDS011;6742;48.036;15.780;2023-01-19T05:26:21;13.17;;;10.40;;
13345;SDS011;6742;48.036;15.780;2023-01-19T05:28:48;11.20;;;10.00;;
13345;SDS011;6742;48.036;15.780;2023-01-19T05:31:15;12.37;;;9.87;;
13345;SDS011;6742;48.036;15.780;2023-01-19T05:33:42;12.40;;;10.77;;
13345;SDS011;6742;48.036;15.780;2023-01-19T05:36:09;12.87;;;10.50;;
13345;SDS011;6742;48.036;15.780;2023-01-19T05:38:39;12.87;;;11.40;;
13345;SDS011;6742;48.036;15.780;2023-01-19T05:41:06;11.57;;;10.33;;
13345;SDS011;6742;48.036;15.780;2023-01-19T05:43:34;12.67;;;10.17;;
13345;SDS011;6742;48.036;15.780;2023-01-19T05:46:02;13.03;;;10.77;;
13345;SDS011;6742;48.036;15.780;2023-01-19T05:48:29;13.07;;;10.97;;
13345;SDS011;6742;48.036;15.780;2023-01-19T05:50:57;13.17;;;11.77;;
13345;SDS011;6742;48.036;15.780;2023-01-19T05:53:24;15.20;;;11.63;;
13345;SDS011;6742;48.036;15.780;2023-01-19T05:55:51;14.53;;;11.97;;
13345;SDS011;6742;48.036;15.780;2023-01-19T05:58:18;13.43;;;11.77;;
13345;SDS011;6742;48.036;15.780;2023-01-19T06:00:46;13.67;;;12.10;;
13345;SDS011;6742;48.036;15.780;2023-01-19T06:03:13;14.67;;;12.07;;
13345;SDS011;6742;48.036;15.780;2023-01-19T06:05:40;13.63;;;11.90;;
13345;SDS011;6742;48.036;15.780;2023-01-19T06:08:07;14.67;;;13.03;;
13345;SDS011;6742;48.036;15.780;2023-01-19T06:10:34;16.27;;;12.47;;
13345;SDS011;6742;48.036;15.780;2023-01-19T06:13:04;15.93;;;13.10;;
13345;SDS011;6742;48.036;15.780;2023-01-19T06:15:31;15.43;;;12.80;;
13345;SDS011;6742;48.036;15.780;2023-01-19T06:17:59;16.50;;;12.47;;
13345;SDS011;6742;48.036;15.780;2023-01-19T06:20:26;17.53;;;14.93;;
13345;SDS011;6742;48.036;15.780;2023-01-19T06:22:55;17.20;;;13.53;;
13345;SDS011;6742;48.036;15.780;2023-01-19T06:25:22;19.03;;;14.73;;
13345;SDS011;6742;48.036;15.780;2023-01-19T06:27:50;17.50;;;14.67;;
13345;SDS011;6742;48.036;15.780;2023-01-19T06:30:17;17.73;;;13.90;;
13345;SDS011;6742;48.036;15.780;2023-01-19T06:32:45;15.77;;;13.40;;
13345;SDS011;6742;48.036;15.780;2023-01-19T06:35:14;14.63;;;12.50;;
13345;SDS011;6742;48.036;15.780;2023-01-19T06:37:40;14.63;;;12.43;;
13345;SDS011;6742;48.036;15.780;2023-01-19T06:40:08;14.53;;;11.67;;
13345;SDS011;6742;48.036;15.780;2023-01-19T06:42:36;15.23;;;13.00;;
13345;SDS011;6742;48.036;15.780;2023-01-19T06:45:03;16.67;;;12.73;;
13345;SDS011;6742;48.036;15.780;2023-01-19T06:47:31;15.30;;;12.80;;
13345;SDS011;6742;48.036;15.780;2023-01-19T06:49:58;15.10;;;13.00;;
13345;SDS011;6742;48.036;15.780;2023-01-19T06:52:27;15.10;;;12.77;;
13345;SDS011;6742;48.036;15.780;2023-01-19T06:54:57;14.20;;;12.70;;
13345;SDS011;6742;48.036;15.780;2023-01-19T06:57:26;15.00;;;13.20;;
13345;SDS011;6742;48.036;15.780;2023-01-19T06:59:53;16.37;;;14.00;;
13345;SDS011;6742;48.036;15.780;2023-01-19T07:02:20;15.07;;;13.37;;
13345;SDS011;6742;48.036;15.780;2023-01-19T07:04:47;15.07;;;12.83;;
13345;SDS011;6742;48.036;15.780;2023-01-19T07:07:15;15.80;;;13.00;;
13345;SDS011;6742;48.036;15.780;2023-01-19T07:09:46;13.87;;;12.37;;
13345;SDS011;6742;48.036;15.780;2023-01-19T07:12:13;14.80;;;12.97;;
13345;SDS011;6742;48.036;15.780;2023-01-19T07:14:40;15.80;;;13.13;;
13345;SDS011;6742;48.036;15.780;2023-01-19T07:17:07;15.77;;;13.07;;
13345;SDS011;6742;48.036;15.780;2023-01-19T07:19:34;15.07;;;13.27;;
13345;SDS011;6742;48.036;15.780;2023-01-19T07:22:01;14.87;;;12.60;;
13345;SDS011;6742;48.036;15.780;2023-01-19T07:24:28;16.07;;;13.07;;
13345;SDS011;6742;48.036;15.780;2023-01-19T07:26:59;14.10;;;12.13;;
13345;SDS011;6742;48.036;15.780;2023-01-19T07:29:25;15.20;;;12.80;;
13345;SDS011;6742;48.036;15.780;2023-01-19T07:31:52;15.63;;;12.87;;
13345;SDS011;6742;48.036;15.780;2023-01-19T07:34:19;16.70;;;13.50;;
13345;SDS011;6742;48.036;15.780;2023-01-19T07:36:47;15.03;;;13.30;;
13345;SDS011;6742;48.036;15.780;2023-01-19T07:39:14;16.33;;;13.80;;
13345;SDS011;6742;48.036;15.780;2023-01-19T07:41:41;15.43;;;12.90;;
13345;SDS011;6742;48.036;15.780;2023-01-19T07:44:09;16.27;;;12.70;;
13345;SDS011;6742;48.036;15.780;2023-01-19T07:46:36;16.37;;;13.67;;
13345;SDS011;6742;48.036;15.780;2023-01-19T07:49:03;15.40;;;12.97;;
13345;SDS011;6742;48.036;15.780;2023-01-19T07:51:30;14.80;;;12.83;;
13345;SDS011;6742;48.036;15.780;2023-01-19T07:53:57;15.90;;;13.57;;
13345;SDS011;6742;48.036;15.780;2023-01-19T07:56:24;14.37;;;12.47;;
13345;SDS011;6742;48.036;15.780;2023-01-19T07:58:51;14.80;;;12.57;;
13345;SDS011;6742;48.036;15.780;2023-01-19T08:01:20;15.87;;;13.47;;
13345;SDS011;6742;48.036;15.780;2023-01-19T08:03:47;15.13;;;13.10;;
13345;SDS011;6742;48.036;15.780;2023-01-19T08:06:16;15.30;;;12.57;;
13345;SDS011;6742;48.036;15.780;2023-01-19T08:08:49;15.20;;;13.03;;
13345;SDS011;6742;48.036;15.780;2023-01-19T08:11:16;15.43;;;13.50;;
13345;SDS011;6742;48.036;15.780;2023-01-19T08:13:46;16.20;;;13.60;;
13345;SDS011;6742;48.036;15.780;2023-01-19T08:16:13;16.13;;;13.23;;
13345;SDS011;6742;48.036;15.780;2023-01-19T08:18:41;14.77;;;13.17;;
13345;SDS011;6742;48.036;15.780;2023-01-19T08:21:08;17.70;;;14.13;;
13345;SDS011;6742;48.036;15.780;2023-01-19T08:23:35;16.20;;;13.27;;
13345;SDS011;6742;48.036;15.780;2023-01-19T08:26:15;15.77;;;13.27;;
13345;SDS011;6742;48.036;15.780;2023-01-19T08:28:43;16.70;;;13.50;;
13345;SDS011;6742;48.036;15.780;2023-01-19T08:31:10;16.70;;;13.03;;
13345;SDS011;6742;48.036;15.780;2023-01-19T08:33:37;14.97;;;12.80;;
13345;SDS011;6742;48.036;15.780;2023-01-19T08:36:06;16.77;;;13.87;;
13345;SDS011;6742;48.036;15.780;2023-01-19T08:38:33;16.10;;;13.30;;
13345;SDS011;6742;48.036;15.780;2023-01-19T08:41:00;16.80;;;14.07;;
13345;SDS011;6742;48.036;15.780;2023-01-19T08:43:26;14.93;;;12.87;;
13345;SDS011;6742;48.036;15.780;2023-01-19T08:45:53;14.80;;;13.20;;
13345;SDS011;6742;48.036;15.780;2023-01-19T08:48:21;16.17;;;13.60;;
13345;SDS011;6742;48.036;15.780;2023-01-19T08:50:49;16.90;;;13.73;;
13345;SDS011;6742;48.036;15.780;2023-01-19T08:53:18;15.87;;;13.70;;
13345;SDS011;6742;48.036;15.780;2023-01-19T08:55:47;16.07;;;14.10;;
13345;SDS011;6742;48.036;15.780;2023-01-19T08:58:15;15.57;;;13.27;;
13345;SDS011;6742;48.036;15.780;2023-01-19T09:00:42;15.97;;;13.17;;
13345;SDS011;6742;48.036;15.780;2023-01-19T09:03:10;15.17;;;13.17;;
13345;SDS011;6742;48.036;15.780;2023-01-19T09:05:40;14.10;;;12.00;;
13345;SDS011;6742;48.036;15.780;2023-01-19T09:08:08;14.47;;;12.47;;
13345;SDS011;6742;48.036;15.780;2023-01-19T09:10:38;14.47;;;12.67;;
13345;SDS011;6742;48.036;15.780;2023-01-19T09:13:10;13.83;;;12.37;;
13345;SDS011;6742;48.036;15.780;2023-01-19T09:15:46;14.03;;;11.97;;
13345;SDS011;6742;48.036;15.780;2023-01-19T09:18:15;14.57;;;11.70;;
13345;SDS011;6742;48.036;15.780;2023-01-19T09:20:43;13.47;;;11.90;;
13345;SDS011;6742;48.036;15.780;2023-01-19T09:23:12;16.00;;;12.13;;
13345;SDS011;6742;48.036;15.780;2023-01-19T09:25:42;14.40;;;12.53;;
13345;SDS011;6742;48.036;15.780;2023-01-19T09:28:11;13.53;;;12.13;;
13345;SDS011;6742;48.036;15.780;2023-01-19T09:30:40;12.40;;;11.10;;
13345;SDS011;6742;48.036;15.780;2023-01-19T09:33:08;13.00;;;11.20;;
13345;SDS011;6742;48.036;15.780;2023-01-19T09:35:37;14.67;;;12.27;;
13345;SDS011;6742;48.036;15.780;2023-01-19T09:38:05;13.37;;;11.53;;
13345;SDS011;6742;48.036;15.780;2023-01-19T09:40:33;16.43;;;11.97;;
13345;SDS011;6742;48.036;15.780;2023-01-19T09:43:05;13.70;;;11.90;;
13345;SDS011;6742;48.036;15.780;2023-01-19T09:45:40;11.93;;;10.50;;
13345;SDS011;6742;48.036;15.780;2023-01-19T09:48:15;12.37;;;10.67;;
13345;SDS011;6742;48.036;15.780;2023-01-19T09:50:49;12.43;;;11.13;;
13345;SDS011;6742;48.036;15.780;2023-01-19T09:53:19;13.83;;;11.07;;
13345;SDS011;6742;48.036;15.780;2023-01-19T09:55:57;12.50;;;11.20;;
13345;SDS011;6742;48.036;15.780;2023-01-19T09:58:28;13.00;;;11.60;;
13345;SDS011;6742;48.036;15.780;2023-01-19T10:00:56;13.20;;;11.80;;
13345;SDS011;6742;48.036;15.780;2023-01-19T10:03:29;13.37;;;11.57;;
13345;SDS011;6742;48.036;15.780;2023-01-19T10:05:57;12.03;;;10.47;;
13345;SDS011;6742;48.036;15.780;2023-01-19T10:08:30;11.70;;;10.50;;
13345;SDS011;6742;48.036;15.780;2023-01-19T10:11:03;13.37;;;11.73;;
13345;SDS011;6742;48.036;15.780;2023-01-19T10:13:44;11.30;;;10.10;;
13345;SDS011;6742;48.036;15.780;2023-01-19T10:16:20;13.03;;;11.07;;
13345;SDS011;6742;48.036;15.780;2023-01-19T10:18:56;13.57;;;10.80;;
13345;SDS011;6742;48.036;15.780;2023-01-19T10:21:27;14.13;;;11.60;;
13345;SDS011;6742;48.036;15.780;2023-01-19T10:24:00;12.07;;;10.80;;
13345;SDS011;6742;48.036;15.780;2023-01-19T10:26:32;12.07;;;10.67;;
13345;SDS011;6742;48.036;15.780;2023-01-19T10:29:04;11.53;;;10.17;;
13345;SDS011;6742;48.036;15.780;2023-01-19T10:31:32;12.07;;;10.50;;
13345;SDS011;6742;48.036;15.780;2023-01-19T10:34:01;12.97;;;11.50;;
13345;SDS011;6742;48.036;15.780;2023-01-19T10:36:33;11.87;;;10.33;;
13345;SDS011;6742;48.036;15.780;2023-01-19T10:39:04;11.83;;;10.40;;
13345;SDS011;6742;48.036;15.780;2023-01-19T10:41:35;14.67;;;11.50;;
13345;SDS011;6742;48.036;15.780;2023-01-19T10:44:08;14.20;;;11.33;;
13345;SDS011;6742;48.036;15.780;2023-01-19T10:46:37;12.10;;;10.70;;
13345;SDS011;6742;48.036;15.780;2023-01-19T10:49:25;13.33;;;10.77;;
13345;SDS011;6742;48.036;15.780;2023-01-19T10:51:54;12.70;;;10.50;;
13345;SDS011;6742;48.036;15.780;2023-01-19T10:54:23;12.90;;;10.47;;
13345;SDS011;6742;48.036;15.780;2023-01-19T10:56:52;12.30;;;10.67;;
13345;SDS011;6742;48.036;15.780;2023-01-19T10:59:32;12.53;;;10.37;;
13345;SDS011;6742;48.036;15.780;2023-01-19T11:02:01;12.67;;;11.13;;
13345;SDS011;6742;48.036;15.780;2023-01-19T11:04:41;12.60;;;10.30;;
13345;SDS011;6742;48.036;15.780;2023-01-19T11:07:13;12.93;;;10.90;;
13345;SDS011;6742;48.036;15.780;2023-01-19T11:09:44;11.07;;;9.73;;
13345;SDS011;6742;48.036;15.780;2023-01-19T11:12:17;12.17;;;10.30;;
13345;SDS011;6742;48.036;15.780;2023-01-19T11:14:48;12.23;;;10.63;;
13345;SDS011;6742;48.036;15.780;2023-01-19T11:17:17;11.53;;;10.17;;
13345;SDS011;6742;48.036;15.780;2023-01-19T11:19:51;11.97;;;10.03;;
13345;SDS011;6742;48.036;15.780;2023-01-19T11:22:24;12.20;;;10.27;;
13345;SDS011;6742;48.036;15.780;2023-01-19T11:24:56;11.60;;;10.40;;
13345;SDS011;6742;48.036;15.780;2023-01-19T11:27:24;12.50;;;10.50;;
13345;SDS011;6742;48.036;15.780;2023-01-19T11:29:56;12.20;;;10.20;;
13345;SDS011;6742;48.036;15.780;2023-01-19T11:32:29;12.57;;;10.13;;
13345;SDS011;6742;48.036;15.780;2023-01-19T11:34:59;12.03;;;10.07;;
13345;SDS011;6742;48.036;15.780;2023-01-19T11:37:28;11.33;;;10.07;;
13345;SDS011;6742;48.036;15.780;2023-01-19T11:39:58;11.03;;;9.80;;
13345;SDS011;6742;48.036;15.780;2023-01-19T11:42:27;10.60;;;9.50;;
13345;SDS011;6742;48.036;15.780;2023-01-19T11:44:59;11.17;;;9.90;;
13345;SDS011;6742;48.036;15.780;2023-01-19T11:47:32;10.80;;;9.20;;
13345;SDS011;6742;48.036;15.780;2023-01-19T11:50:04;11.13;;;9.93;;
13345;SDS011;6742;48.036;15.780;2023-01-19T11:52:38;10.73;;;9.33;;
13345;SDS011;6742;48.036;15.780;2023-01-19T11:55:11;12.50;;;9.10;;
13345;SDS011;6742;48.036;15.780;2023-01-19T11:57:44;11.90;;;9.47;;
13345;SDS011;6742;48.036;15.780;2023-01-19T12:00:18;12.23;;;10.27;;
13345;SDS011;6742;48.036;15.780;2023-01-19T12:02:52;11.30;;;9.47;;
13345;SDS011;6742;48.036;15.780;2023-01-19T12:05:21;11.63;;;9.33;;
13345;SDS011;6742;48.036;15.780;2023-01-19T12:07:51;11.47;;;9.53;;
13345;SDS011;6742;48.036;15.780;2023-01-19T12:10:22;10.30;;;9.20;;
13345;SDS011;6742;48.036;15.780;2023-01-19T12:12:51;11.13;;;9.30;;
13345;SDS011;6742;48.036;15.780;2023-01-19T12:15:22;9.27;;;8.27;;
13345;SDS011;6742;48.036;15.780;2023-01-19T12:17:55;11.67;;;8.90;;
13345;SDS011;6742;48.036;15.780;2023-01-19T12:20:25;10.67;;;8.80;;
13345;SDS011;6742;48.036;15.780;2023-01-19T12:22:58;8.77;;;7.70;;
13345;SDS011;6742;48.036;15.780;2023-01-19T12:25:44;8.43;;;7.53;;
13345;SDS011;6742;48.036;15.780;2023-01-19T12:28:18;9.97;;;7.60;;
13345;SDS011;6742;48.036;15.780;2023-01-19T12:30:52;8.97;;;7.60;;
13345;SDS011;6742;48.036;15.780;2023-01-19T12:33:20;8.57;;;7.00;;
13345;SDS011;6742;48.036;15.780;2023-01-19T12:36:04;9.07;;;6.97;;
13345;SDS011;6742;48.036;15.780;2023-01-19T12:38:38;7.87;;;6.90;;
13345;SDS011;6742;48.036;15.780;2023-01-19T12:41:16;8.23;;;6.57;;
13345;SDS011;6742;48.036;15.780;2023-01-19T12:43:45;9.63;;;7.13;;
13345;SDS011;6742;48.036;15.780;2023-01-19T12:46:22;8.00;;;6.90;;
13345;SDS011;6742;48.036;15.780;2023-01-19T12:48:53;8.00;;;6.87;;
13345;SDS011;6742;48.036;15.780;2023-01-19T12:51:28;8.37;;;6.93;;
13345;SDS011;6742;48.036;15.780;2023-01-19T12:53:55;9.57;;;6.97;;
13345;SDS011;6742;48.036;15.780;2023-01-19T12:56:27;7.40;;;6.60;;
13345;SDS011;6742;48.036;15.780;2023-01-19T12:58:56;8.23;;;6.20;;
13345;SDS011;6742;48.036;15.780;2023-01-19T13:01:25;7.90;;;6.30;;
13345;SDS011;6742;48.036;15.780;2023-01-19T13:07:05;8.43;;;6.10;;
13345;SDS011;6742;48.036;15.780;2023-01-19T13:09:35;9.37;;;6.40;;
13345;SDS011;6742;48.036;15.780;2023-01-19T13:12:19;7.97;;;6.47;;
13345;SDS011;6742;48.036;15.780;2023-01-19T13:14:47;7.70;;;6.40;;
13345;SDS011;6742;48.036;15.780;2023-01-19T13:17:27;8.27;;;6.53;;
13345;SDS011;6742;48.036;15.780;2023-01-19T13:20:01;7.90;;;6.20;;
13345;SDS011;6742;48.036;15.780;2023-01-19T13:26:00;8.33;;;6.63;;
13345;SDS011;6742;48.036;15.780;2023-01-19T13:28:32;24.50;;;7.93;;
13345;SDS011;6742;48.036;15.780;2023-01-19T13:31:03;9.30;;;7.47;;
13345;SDS011;6742;48.036;15.780;2023-01-19T13:33:35;9.77;;;7.10;;
13345;SDS011;6742;48.036;15.780;2023-01-19T13:36:13;9.50;;;7.50;;
13345;SDS011;6742;48.036;15.780;2023-01-19T13:38:45;10.17;;;7.50;;
13345;SDS011;6742;48.036;15.780;2023-01-19T13:41:14;11.20;;;8.07;;
13345;SDS011;6742;48.036;15.780;2023-01-19T13:43:41;10.13;;;8.27;;
13345;SDS011;6742;48.036;15.780;2023-01-19T13:46:09;12.57;;;8.37;;
13345;SDS011;6742;48.036;15.780;2023-01-19T13:48:54;9.37;;;7.43;;
13345;SDS011;6742;48.036;15.780;2023-01-19T13:51:23;10.00;;;7.93;;
13345;SDS011;6742;48.036;15.780;2023-01-19T13:53:54;10.00;;;7.80;;
13345;SDS011;6742;48.036;15.780;2023-01-19T13:56:22;10.67;;;7.47;;
13345;SDS011;6742;48.036;15.780;2023-01-19T13:58:58;10.07;;;7.13;;
13345;SDS011;6742;48.036;15.780;2023-01-19T14:01:28;9.00;;;6.63;;
13345;SDS011;6742;48.036;15.780;2023-01-19T14:03:58;8.70;;;6.90;;
13345;SDS011;6742;48.036;15.780;2023-01-19T14:09:15;7.10;;;6.10;;
13345;SDS011;6742;48.036;15.780;2023-01-19T14:11:44;8.67;;;7.03;;
13345;SDS011;6742;48.036;15.780;2023-01-19T14:14:25;7.93;;;6.57;;
13345;SDS011;6742;48.036;15.780;2023-01-19T14:16:52;8.43;;;7.07;;
13345;SDS011;6742;48.036;15.780;2023-01-19T14:19:21;7.90;;;7.10;;
13345;SDS011;6742;48.036;15.780;2023-01-19T14:21:56;10.10;;;6.70;;
13345;SDS011;6742;48.036;15.780;2023-01-19T14:24:24;10.07;;;6.60;;
13345;SDS011;6742;48.036;15.780;2023-01-19T14:27:01;8.53;;;6.33;;
13345;SDS011;6742;48.036;15.780;2023-01-19T14:29:33;9.77;;;7.23;;
13345;SDS011;6742;48.036;15.780;2023-01-19T14:32:06;11.07;;;8.10;;
13345;SDS011;6742;48.036;15.780;2023-01-19T14:34:42;9.50;;;7.13;;
13345;SDS011;6742;48.036;15.780;2023-01-19T14:37:15;9.83;;;7.07;;
13345;SDS011;6742;48.036;15.780;2023-01-19T14:39:45;9.27;;;6.90;;
13345;SDS011;6742;48.036;15.780;2023-01-19T14:42:15;9.23;;;6.73;;
13345;SDS011;6742;48.036;15.780;2023-01-19T14:44:46;9.43;;;6.90;;
13345;SDS011;6742;48.036;15.780;2023-01-19T14:47:20;7.60;;;6.23;;
13345;SDS011;6742;48.036;15.780;2023-01-19T14:49:52;8.37;;;6.50;;
13345;SDS011;6742;48.036;15.780;2023-01-19T14:52:24;8.33;;;6.90;;
13345;SDS011;6742;48.036;15.780;2023-01-19T14:54:53;9.07;;;6.63;;
13345;SDS011;6742;48.036;15.780;2023-01-19T14:57:22;9.27;;;6.77;;
13345;SDS011;6742;48.036;15.780;2023-01-19T14:59:49;7.27;;;6.27;;
13345;SDS011;6742;48.036;15.780;2023-01-19T15:02:17;9.43;;;7.07;;